9ha2459 — 9HA2459 — position and weather

sailwx.info

Track history (hours):
 
Tides and Currents Weather Stations Pressure Air Temp Water Temp Dewpoint Dewpoint Depression Visibility Wind Speed Wind Dir Waves Ship Positions

9ha2459

Last reported at 2017-Sep-22 01:58 UTC. Time now 2017-Sep-23 18:34 UTC.
Position N 44°24' E 008°55'.

Length 50 m; draft 4.9 m.

Type: Pleasure craft. MMSI: 248663000.

Date/timePositionNaut miles runAvg speedWind from/ knotsBaromVisibWave heightAir tempDewpointWater temp
2017-Sep-22 01:58N 44°24' E 008°55'0 0.0
2017-Sep-22 01:28N 44°25' E 008°55'0 0.0
2017-Sep-22 00:58N 44°24' E 008°55'0 0.0
2017-Sep-22 00:28N 44°24' E 008°55'0 0.0
2017-Sep-21 23:58N 44°24' E 008°55'0 0.0
2017-Sep-21 23:28N 44°24' E 008°55'0 0.0
2017-Sep-21 22:58N 44°24' E 008°55'0 0.0
2017-Sep-21 22:28N 44°25' E 008°55'0 0.0
2017-Sep-21 21:58N 44°24' E 008°55'0 0.0
2017-Sep-21 21:28N 44°24' E 008°55'0 0.0
2017-Sep-21 20:58N 44°24' E 008°55'0 0.0
2017-Sep-21 20:28N 44°25' E 008°55'0 0.0
2017-Sep-21 19:58N 44°24' E 008°55'0 0.0
2017-Sep-21 19:28N 44°24' E 008°55'0 0.0
2017-Sep-21 18:57N 44°24' E 008°55'0 0.0
2017-Sep-21 18:27N 44°24' E 008°55'0 0.0
2017-Sep-21 18:00N 44°24' E 008°55'0 0.0
2017-Sep-21 17:30N 44°24' E 008°55'0 0.0
2017-Sep-21 17:00N 44°24' E 008°55'0 0.0
2017-Sep-21 16:30N 44°24' E 008°55'0 0.0
2017-Sep-21 16:00N 44°24' E 008°55'0 0.0
2017-Sep-21 15:30N 44°24' E 008°55'0 0.4
2017-Sep-21 15:00N 44°24' E 008°55'4 8.1
2017-Sep-21 14:30N 44°21' E 008°58'612.0
2017-Sep-21 14:00N 44°16' E 009°03'2 4.3
2017-Sep-21 13:30N 44°15' E 009°05'1 3.0
2017-Sep-21 13:00N 44°14' E 009°07'1 1.8
2017-Sep-21 12:30N 44°15' E 009°07'0 0.7
2017-Sep-21 12:00N 44°15' E 009°06'1 1.6
2017-Sep-21 11:30N 44°16' E 009°05'1 2.8
2017-Sep-21 11:00N 44°16' E 009°04'2 3.3
2017-Sep-21 10:31N 44°17' E 009°02'2 3.2
2017-Sep-21 10:00N 44°17' E 008°59'0 0.4
2017-Sep-21 09:30N 44°17' E 008°59'1 2.7
2017-Sep-21 09:00N 44°16' E 009°01'1 2.5
2017-Sep-21 08:31N 44°15' E 009°02'2 4.4
2017-Sep-21 08:00N 44°13' E 009°04'2 4.8
2017-Sep-21 07:31N 44°13' E 009°07'3 6.2
2017-Sep-21 07:00N 44°14' E 009°03'3 5.1
2017-Sep-21 06:29N 44°12' E 009°06'3 6.7
2017-Sep-21 06:01N 44°08' E 009°06'3 6.6
2017-Sep-21 05:30N 44°05' E 009°06'4 7.4
2017-Sep-21 05:01N 44°02' E 009°07'4 7.8
2017-Sep-21 04:30N 43°58' E 009°09'4 7.7
2017-Sep-21 04:00N 43°54' E 009°11'4 7.8
2017-Sep-21 03:30N 43°51' E 009°12'4 7.7
2017-Sep-21 03:00N 43°47' E 009°14'4 7.6
2017-Sep-21 02:30N 43°43' E 009°15'4 8.3
2017-Sep-21 02:00N 43°39' E 009°16'510.1
2017-Sep-21 01:30N 43°34' E 009°18'510.1
2017-Sep-21 00:59N 43°29' E 009°20'5 9.9
2017-Sep-21 00:30N 43°25' E 009°22'5 9.7
2017-Sep-21 00:01N 43°20' E 009°24'5 9.7
2017-Sep-20 23:30N 43°16' E 009°26'5 9.4
2017-Sep-20 23:01N 43°11' E 009°28'5 8.9
2017-Sep-20 22:27N 43°06' E 009°30'4 8.9
2017-Sep-20 22:00N 43°02' E 009°32'510.0
2017-Sep-20 21:30N 42°58' E 009°33'510.3
2017-Sep-20 21:00N 42°53' E 009°35'  
Track history (hours):
 
Tides and Currents Weather Stations Pressure Air Temp Water Temp Dewpoint Dewpoint Depression Visibility Wind Speed Wind Dir Waves Ship Positions

9ha2459

Last reported at 2017-Sep-22 01:58 UTC. Time now 2017-Sep-23 18:34 UTC.
Position N 44°24' E 008°55'.

Length 50 m; draft 4.9 m.

Type: Pleasure craft. MMSI: 248663000.

Date/timePositionNaut miles runAvg speedWind from/ knotsBaromVisibWave heightAir tempDewpointWater temp
2017-Sep-22 01:58N 44°24' E 008°55'0 0.0
2017-Sep-22 01:28N 44°25' E 008°55'0 0.0
2017-Sep-22 00:58N 44°24' E 008°55'0 0.0
2017-Sep-22 00:28N 44°24' E 008°55'0 0.0
2017-Sep-21 23:58N 44°24' E 008°55'0 0.0
2017-Sep-21 23:28N 44°24' E 008°55'0 0.0
2017-Sep-21 22:58N 44°24' E 008°55'0 0.0
2017-Sep-21 22:28N 44°25' E 008°55'0 0.0
2017-Sep-21 21:58N 44°24' E 008°55'0 0.0
2017-Sep-21 21:28N 44°24' E 008°55'0 0.0
2017-Sep-21 20:58N 44°24' E 008°55'0 0.0
2017-Sep-21 20:28N 44°25' E 008°55'0 0.0
2017-Sep-21 19:58N 44°24' E 008°55'0 0.0
2017-Sep-21 19:28N 44°24' E 008°55'0 0.0
2017-Sep-21 18:57N 44°24' E 008°55'0 0.0
2017-Sep-21 18:27N 44°24' E 008°55'0 0.0
2017-Sep-21 18:00N 44°24' E 008°55'0 0.0
2017-Sep-21 17:30N 44°24' E 008°55'0 0.0
2017-Sep-21 17:00N 44°24' E 008°55'0 0.0
2017-Sep-21 16:30N 44°24' E 008°55'0 0.0
2017-Sep-21 16:00N 44°24' E 008°55'0 0.0
2017-Sep-21 15:30N 44°24' E 008°55'0 0.4
2017-Sep-21 15:00N 44°24' E 008°55'4 8.1
2017-Sep-21 14:30N 44°21' E 008°58'612.0
2017-Sep-21 14:00N 44°16' E 009°03'2 4.3
2017-Sep-21 13:30N 44°15' E 009°05'1 3.0
2017-Sep-21 13:00N 44°14' E 009°07'1 1.8
2017-Sep-21 12:30N 44°15' E 009°07'0 0.7
2017-Sep-21 12:00N 44°15' E 009°06'1 1.6
2017-Sep-21 11:30N 44°16' E 009°05'1 2.8
2017-Sep-21 11:00N 44°16' E 009°04'2 3.3
2017-Sep-21 10:31N 44°17' E 009°02'2 3.2
2017-Sep-21 10:00N 44°17' E 008°59'0 0.4
2017-Sep-21 09:30N 44°17' E 008°59'1 2.7
2017-Sep-21 09:00N 44°16' E 009°01'1 2.5
2017-Sep-21 08:31N 44°15' E 009°02'2 4.4
2017-Sep-21 08:00N 44°13' E 009°04'2 4.8
2017-Sep-21 07:31N 44°13' E 009°07'3 6.2
2017-Sep-21 07:00N 44°14' E 009°03'3 5.1
2017-Sep-21 06:29N 44°12' E 009°06'3 6.7
2017-Sep-21 06:01N 44°08' E 009°06'3 6.6
2017-Sep-21 05:30N 44°05' E 009°06'4 7.4
2017-Sep-21 05:01N 44°02' E 009°07'4 7.8
2017-Sep-21 04:30N 43°58' E 009°09'4 7.7
2017-Sep-21 04:00N 43°54' E 009°11'4 7.8
2017-Sep-21 03:30N 43°51' E 009°12'4 7.7
2017-Sep-21 03:00N 43°47' E 009°14'4 7.6
2017-Sep-21 02:30N 43°43' E 009°15'4 8.3
2017-Sep-21 02:00N 43°39' E 009°16'510.1
2017-Sep-21 01:30N 43°34' E 009°18'510.1
2017-Sep-21 00:59N 43°29' E 009°20'5 9.9
2017-Sep-21 00:30N 43°25' E 009°22'5 9.7
2017-Sep-21 00:01N 43°20' E 009°24'5 9.7
2017-Sep-20 23:30N 43°16' E 009°26'5 9.4
2017-Sep-20 23:01N 43°11' E 009°28'5 8.9
2017-Sep-20 22:27N 43°06' E 009°30'4 8.9
2017-Sep-20 22:00N 43°02' E 009°32'510.0
2017-Sep-20 21:30N 42°58' E 009°33'510.3
2017-Sep-20 21:00N 42°53' E 009°35'  

Dump ship's entire track history